Time;durP1;ratioP1;P1;durP2;ratioP2;P2;SDS_P1;SDS_P2;PMS_P1;PMS_P2;Temp;Humidity;BMP_temperature;BMP_pressure;BME280_temperature;BME280_humidity;BME280_pressure;Samples;Min_cycle;Max_cycle;Signal;HPM_P1;HPM_P2
2022/03/12 00:00:36;;;;;;;;;;;;;;;10.33;100.00;101195.59;5246076;28;20236;-68
2022/03/12 00:03:08;;;;;;;;;;;;;;;10.35;100.00;101206.97;5246023;28;19924;-68
2022/03/12 00:05:48;;;;;;;;;;;;;;;10.38;100.00;101203.78;5245916;28;19944;-67
2022/03/12 00:08:21;;;;;;;;;;;;;;;10.41;100.00;101203.25;5245879;28;19923;-66
2022/03/12 00:10:52;;;;;;;;;;;;;;;10.42;100.00;101193.28;5246044;28;19955;-67
2022/03/12 00:13:22;;;;;;;;;;;;;;;10.45;100.00;101187.38;5245853;28;20379;-66
2022/03/12 00:15:53;;;;;;;;;;;;;;;10.47;100.00;101198.75;5246046;28;19916;-67
2022/03/12 00:18:25;;;;;;;;;;;;;;;10.46;100.00;101183.63;5245801;28;19960;-66
2022/03/12 00:20:56;;;;;;;;;;;;;;;10.47;100.00;101190.66;5245742;28;20371;-66
2022/03/12 00:23:30;;;;;;;;;;;;;;;10.46;100.00;101192.53;5245641;28;19916;-67
2022/03/12 00:26:01;;;;;;;;;;;;;;;10.45;100.00;101199.00;5245838;28;20442;-68
2022/03/12 00:28:31;;;;;;;;;;;;;;;10.44;100.00;101212.75;5246032;28;19913;-67
2022/03/12 00:31:01;;;;;;;;;;;;;;;10.40;100.00;101219.69;5245908;28;19912;-67
2022/03/12 00:33:32;;;;;;;;;;;;;;;10.39;100.00;101212.69;5245406;28;19921;-65
2022/03/12 00:36:02;;;;;;;;;;;;;;;10.37;100.00;101217.53;5245615;28;19913;-66
2022/03/12 00:38:33;;;;;;;;;;;;;;;10.35;100.00;101214.25;5245427;28;19999;-68
2022/03/12 00:41:05;;;;;;;;;;;;;;;10.34;100.00;101218.00;5246104;28;20175;-67
2022/03/12 00:43:36;;;;;;;;;;;;;;;10.38;100.00;101219.16;5245326;28;19966;-66
2022/03/12 00:46:06;;;;;;;;;;;;;;;10.35;100.00;101222.34;5245599;28;19924;-67
2022/03/12 00:48:38;;;;;;;;;;;;;;;10.32;100.00;101229.03;5245564;28;19916;-67
2022/03/12 00:51:09;;;;;;;;;;;;;;;10.32;100.00;101236.31;5249508;28;19913;-66
2022/03/12 00:53:40;;;;;;;;;;;;;;;10.27;100.00;101230.84;5249653;28;19924;-66
2022/03/12 00:56:11;;;;;;;;;;;;;;;10.25;100.00;101235.66;5249848;28;20391;-67
2022/03/12 00:58:45;;;;;;;;;;;;;;;10.23;100.00;101248.59;5249882;28;19990;-67
2022/03/12 01:01:17;;;;;;;;;;;;;;;10.22;100.00;101246.94;5249917;28;19912;-67
2022/03/12 01:03:47;;;;;;;;;;;;;;;10.21;100.00;101245.31;5249604;28;19973;-66
2022/03/12 01:06:18;;;;;;;;;;;;;;;10.20;100.00;101249.06;5249376;28;19948;-67
2022/03/12 01:08:49;;;;;;;;;;;;;;;10.19;100.00;101248.25;5249400;28;19951;-66
2022/03/12 01:11:19;;;;;;;;;;;;;;;10.20;100.00;101254.47;5249624;28;19951;-67
2022/03/12 01:13:49;;;;;;;;;;;;;;;10.16;100.00;101249.50;5249121;28;19935;-66
2022/03/12 01:16:20;;;;;;;;;;;;;;;10.20;100.00;101243.66;5249315;28;20327;-67
2022/03/12 01:18:51;;;;;;;;;;;;;;;10.16;100.00;101244.13;5250487;28;19939;-66
2022/03/12 01:21:22;;;;;;;;;;;;;;;10.10;100.00;101249.69;5249148;28;19913;-66
2022/03/12 01:23:53;;;;;;;;;;;;;;;10.04;100.00;101239.88;5248737;28;19912;-67
2022/03/12 01:26:24;;;;;;;;;;;;;;;10.02;100.00;101258.19;5249223;28;20399;-66
2022/03/12 01:28:55;;;;;;;;;;;;;;;10.00;100.00;101261.13;5248898;28;20011;-66
2022/03/12 01:31:25;;;;;;;;;;;;;;;10.00;100.00;101271.91;5248926;28;19919;-66
2022/03/12 01:33:55;;;;;;;;;;;;;;;9.98;100.00;101260.53;5248834;28;19917;-67
2022/03/12 01:36:26;;;;;;;;;;;;;;;9.95;100.00;101263.72;5248644;28;19995;-66
2022/03/12 01:38:57;;;;;;;;;;;;;;;9.91;100.00;101262.56;5248383;28;20015;-66
2022/03/12 01:41:32;;;;;;;;;;;;;;;9.86;100.00;101257.06;5248971;28;20369;-66
2022/03/12 01:44:02;;;;;;;;;;;;;;;9.87;100.00;101261.41;5248751;28;19999;-66
2022/03/12 01:46:35;;;;;;;;;;;;;;;9.87;100.00;101255.19;5248787;28;20290;-66
2022/03/12 01:49:09;;;;;;;;;;;;;;;9.83;100.00;101249.44;5248699;28;19966;-66
2022/03/12 01:51:41;;;;;;;;;;;;;;;9.77;100.00;101255.84;5248965;28;20372;-66
2022/03/12 01:54:13;;;;;;;;;;;;;;;9.71;100.00;101254.91;5248704;28;19913;-66
2022/03/12 01:56:45;;;;;;;;;;;;;;;9.68;100.00;101254.56;5248679;28;19912;-66
2022/03/12 01:59:16;;;;;;;;;;;;;;;9.57;100.00;101275.09;5248754;28;19957;-66
2022/03/12 02:01:52;;;;;;;;;;;;;;;9.51;100.00;101273.41;5247025;28;20327;-68
2022/03/12 02:04:23;;;;;;;;;;;;;;;9.53;100.00;101281.25;5248389;28;19916;-66
2022/03/12 02:06:53;;;;;;;;;;;;;;;9.55;100.00;101281.78;5248039;28;19924;-66
2022/03/12 02:09:24;;;;;;;;;;;;;;;9.54;100.00;101280.16;5248338;28;19955;-66
2022/03/12 02:11:54;;;;;;;;;;;;;;;9.51;100.00;101291.44;5248515;28;20103;-66
2022/03/12 02:14:26;;;;;;;;;;;;;;;9.52;100.00;101290.38;5248016;28;19917;-66
2022/03/12 02:16:56;;;;;;;;;;;;;;;9.51;100.00;101288.75;5248153;28;20015;-65
2022/03/12 02:19:27;;;;;;;;;;;;;;;9.48;100.00;101282.78;5248158;28;20034;-66
2022/03/12 02:22:06;;;;;;;;;;;;;;;9.48;100.00;101277.38;5248024;28;19958;-65
2022/03/12 02:24:37;;;;;;;;;;;;;;;9.47;100.00;101289.22;5247785;28;19913;-66
2022/03/12 02:27:10;;;;;;;;;;;;;;;9.52;100.00;101282.31;5248106;28;19916;-65
2022/03/12 02:29:42;;;;;;;;;;;;;;;9.51;100.00;101281.47;5247902;28;20038;-66
2022/03/12 02:32:13;;;;;;;;;;;;;;;9.52;100.00;101283.13;5247988;28;19913;-66
2022/03/12 02:34:45;;;;;;;;;;;;;;;9.52;100.00;101291.22;5247599;28;19920;-66
2022/03/12 02:37:21;;;;;;;;;;;;;;;9.53;100.00;101283.94;5247676;28;19912;-65
2022/03/12 02:39:51;;;;;;;;;;;;;;;9.54;100.00;101290.94;5247702;28;19916;-66
2022/03/12 02:42:23;;;;;;;;;;;;;;;9.53;100.00;101295.50;5247479;28;19935;-66
2022/03/12 02:44:54;;;;;;;;;;;;;;;9.50;100.00;101292.50;5247569;28;20394;-67
2022/03/12 02:47:30;;;;;;;;;;;;;;;9.48;100.00;101295.44;5247625;28;19917;-66
2022/03/12 02:50:03;;;;;;;;;;;;;;;9.46;100.00;101303.75;5247579;28;19916;-66
2022/03/12 02:52:40;;;;;;;;;;;;;;;9.45;100.00;101310.22;5247474;28;19913;-66
2022/03/12 02:55:16;;;;;;;;;;;;;;;9.40;100.00;101311.97;5247312;28;20012;-67
2022/03/12 02:57:48;;;;;;;;;;;;;;;9.40;100.00;101307.41;5247457;28;20277;-66
2022/03/12 03:00:19;;;;;;;;;;;;;;;9.39;100.00;101305.75;5247059;28;19912;-66
2022/03/12 03:02:53;;;;;;;;;;;;;;;9.36;100.00;101311.63;5247218;28;19959;-66
2022/03/12 03:08:04;;;;;;;;;;;;;;;9.29;100.00;101319.00;5248431;28;19925;-66
2022/03/12 03:10:34;;;;;;;;;;;;;;;9.25;100.00;101319.72;5247102;28;20292;-68
2022/03/12 03:13:16;;;;;;;;;;;;;;;9.24;100.00;101316.19;5246416;28;19912;-66
2022/03/12 03:15:49;;;;;;;;;;;;;;;9.24;100.00;101318.88;5246803;28;19923;-65
2022/03/12 03:18:22;;;;;;;;;;;;;;;9.18;100.00;101311.75;5246938;28;19912;-65
2022/03/12 03:20:53;;;;;;;;;;;;;;;9.14;100.00;101316.81;5246732;28;19912;-65
2022/03/12 03:23:25;;;;;;;;;;;;;;;9.11;100.00;101322.66;5246539;28;20031;-65
2022/03/12 03:25:56;;;;;;;;;;;;;;;9.09;100.00;101330.16;5246874;28;20300;-67
2022/03/12 03:28:27;;;;;;;;;;;;;;;9.07;100.00;101331.44;5246878;28;19912;-66
2022/03/12 03:30:57;;;;;;;;;;;;;;;9.04;100.00;101323.81;5247068;28;19912;-66
2022/03/12 03:33:27;;;;;;;;;;;;;;;9.01;100.00;101326.97;5246140;28;20015;-65
2022/03/12 03:35:58;;;;;;;;;;;;;;;8.95;100.00;101328.72;5246878;28;20444;-65
2022/03/12 03:38:28;;;;;;;;;;;;;;;8.87;100.00;101320.19;5246636;28;19916;-65
2022/03/12 03:40:58;;;;;;;;;;;;;;;8.84;100.00;101326.06;5247521;28;19944;-66
2022/03/12 03:43:29;;;;;;;;;;;;;;;8.79;100.00;101319.50;5246131;28;19912;-66
2022/03/12 03:45:59;;;;;;;;;;;;;;;8.79;100.00;101332.94;5247377;28;19968;-65
2022/03/12 03:48:31;;;;;;;;;;;;;;;8.81;100.00;101327.34;5246396;28;19963;-66
2022/03/12 03:51:01;;;;;;;;;;;;;;;8.86;100.00;101332.84;5246310;28;19912;-66
2022/03/12 03:53:32;;;;;;;;;;;;;;;8.87;100.00;101336.34;5245924;28;20171;-66
2022/03/12 03:56:03;;;;;;;;;;;;;;;8.88;100.00;101329.91;5246166;28;20295;-65
2022/03/12 03:58:34;;;;;;;;;;;;;;;8.90;100.00;101338.59;5246152;28;20388;-65
2022/03/12 04:01:12;;;;;;;;;;;;;;;8.87;100.00;101334.50;5246334;28;19919;-65
2022/03/12 04:03:49;;;;;;;;;;;;;;;8.77;100.00;101329.66;5245827;28;19912;-65
2022/03/12 04:06:20;;;;;;;;;;;;;;;8.71;100.00;101327.91;5246110;28;20006;-65
2022/03/12 04:08:52;;;;;;;;;;;;;;;8.59;100.00;101340.53;5246074;28;20315;-66
2022/03/12 04:11:23;;;;;;;;;;;;;;;8.48;100.00;101332.41;5246082;28;20273;-66
2022/03/12 04:13:57;;;;;;;;;;;;;;;8.34;100.00;101337.19;5246063;28;19913;-66
2022/03/12 04:16:28;;;;;;;;;;;;;;;8.27;100.00;101348.03;5245793;28;19923;-65
2022/03/12 04:18:58;;;;;;;;;;;;;;;8.18;100.00;101343.19;5246280;28;20368;-65
2022/03/12 04:21:29;;;;;;;;;;;;;;;8.12;100.00;101351.09;5245781;28;19916;-65
2022/03/12 04:23:59;;;;;;;;;;;;;;;8.05;100.00;101355.78;5244863;28;20305;-66
2022/03/12 04:26:31;;;;;;;;;;;;;;;8.01;100.00;101365.34;5246018;28;20295;-65
2022/03/12 04:29:04;;;;;;;;;;;;;;;7.99;100.00;101359.38;5246053;28;19913;-65
2022/03/12 04:31:35;;;;;;;;;;;;;;;7.92;100.00;101365.88;5246472;28;20360;-65
2022/03/12 04:34:05;;;;;;;;;;;;;;;7.94;100.00;101364.59;5246495;28;19954;-66
2022/03/12 04:36:36;;;;;;;;;;;;;;;7.95;100.00;101366.25;5247849;28;19916;-66
2022/03/12 04:39:06;;;;;;;;;;;;;;;7.92;100.00;101360.50;5246694;28;19920;-65
2022/03/12 04:41:39;;;;;;;;;;;;;;;7.85;100.00;101365.94;5257381;22;21089;-58
2022/03/12 04:44:10;;;;;;;;;;;;;;;7.81;100.00;101370.13;5208960;28;19924;-61
2022/03/12 04:46:40;;;;;;;;;;;;;;;7.79;100.00;101372.25;5228543;28;20463;-58
2022/03/12 04:49:10;;;;;;;;;;;;;;;7.83;100.00;101377.97;5228365;28;19913;-59
2022/03/12 04:51:42;;;;;;;;;;;;;;;7.89;100.00;101377.88;5228357;28;19919;-59
2022/03/12 04:54:13;;;;;;;;;;;;;;;7.96;100.00;101383.19;5227873;28;20352;-58
2022/03/12 04:56:44;;;;;;;;;;;;;;;8.01;100.00;101376.09;5228515;28;19999;-59
2022/03/12 04:59:14;;;;;;;;;;;;;;;8.06;100.00;101378.13;5228451;28;19935;-59
2022/03/12 05:01:46;;;;;;;;;;;;;;;8.09;100.00;101383.84;5228253;28;19920;-59
2022/03/12 05:04:16;;;;;;;;;;;;;;;8.18;100.00;101376.28;5227979;28;19917;-61
2022/03/12 05:06:46;;;;;;;;;;;;;;;8.22;100.00;101382.03;5228377;28;19923;-59
2022/03/12 05:09:17;;;;;;;;;;;;;;;8.21;100.00;101377.69;5228562;28;19935;-62
2022/03/12 05:11:48;;;;;;;;;;;;;;;8.22;100.00;101382.03;5228251;28;19913;-58
2022/03/12 05:14:19;;;;;;;;;;;;;;;8.24;100.00;101383.44;5227958;28;19912;-59
2022/03/12 05:16:50;;;;;;;;;;;;;;;8.18;100.00;101378.16;5228028;28;19960;-59
2022/03/12 05:19:21;;;;;;;;;;;;;;;8.16;100.00;101380.25;5228293;28;20376;-59
2022/03/12 05:21:51;;;;;;;;;;;;;;;8.23;100.00;101381.81;5227904;28;19912;-59
2022/03/12 05:24:22;;;;;;;;;;;;;;;8.29;100.00;101378.22;5228092;28;19912;-59
2022/03/12 05:26:52;;;;;;;;;;;;;;;8.30;100.00;101389.78;5228116;28;19916;-59
2022/03/12 05:29:22;;;;;;;;;;;;;;;8.22;100.00;101382.03;5246302;28;20326;-59
2022/03/12 05:31:53;;;;;;;;;;;;;;;8.07;100.00;101380.59;5228358;28;19999;-59
2022/03/12 05:34:23;;;;;;;;;;;;;;;7.93;100.00;101395.22;5227934;28;19939;-59
2022/03/12 05:36:53;;;;;;;;;;;;;;;7.82;100.00;101398.66;5231488;28;19920;-59
2022/03/12 05:39:24;;;;;;;;;;;;;;;7.75;100.00;101392.56;5232365;28;19947;-58
2022/03/12 05:41:59;;;;;;;;;;;;;;;7.62;100.00;101401.56;5231606;28;19923;-58
2022/03/12 05:44:29;;;;;;;;;;;;;;;7.53;100.00;101400.22;5231374;28;19912;-58
2022/03/12 05:47:03;;;;;;;;;;;;;;;7.44;100.00;101410.44;5231701;28;19920;-58
2022/03/12 05:49:33;;;;;;;;;;;;;;;7.38;100.00;101403.28;5231664;28;20322;-59
2022/03/12 05:52:04;;;;;;;;;;;;;;;7.33;100.00;101418.41;5232272;28;19912;-58
2022/03/12 05:54:34;;;;;;;;;;;;;;;7.29;100.00;101412.66;5232436;28;19912;-58
2022/03/12 05:57:04;;;;;;;;;;;;;;;7.34;100.00;101417.34;5232351;28;19917;-59
2022/03/12 05:59:35;;;;;;;;;;;;;;;7.27;100.00;101416.59;5232049;28;19912;-58
2022/03/12 06:02:05;;;;;;;;;;;;;;;7.24;100.00;101417.03;5231306;28;19959;-58
2022/03/12 06:04:36;;;;;;;;;;;;;;;7.21;100.00;101421.00;5249252;28;19924;-59
2022/03/12 06:07:09;;;;;;;;;;;;;;;7.15;100.00;101413.00;5231347;28;20007;-59
2022/03/12 06:09:39;;;;;;;;;;;;;;;7.07;100.00;101419.47;5231185;28;19912;-58
2022/03/12 06:12:17;;;;;;;;;;;;;;;7.03;100.00;101427.13;5231172;28;20146;-59
2022/03/12 06:14:51;;;;;;;;;;;;;;;6.97;100.00;101428.00;5230955;28;20414;-58
2022/03/12 06:17:24;;;;;;;;;;;;;;;6.93;100.00;101428.66;5231537;28;19920;-58
2022/03/12 06:19:54;;;;;;;;;;;;;;;6.93;100.00;101440.19;5231245;28;20390;-58
2022/03/12 06:22:25;;;;;;;;;;;;;;;6.94;100.00;101441.03;5231008;28;19916;-59
2022/03/12 06:24:55;;;;;;;;;;;;;;;6.89;100.00;101443.56;5230938;28;20288;-59
2022/03/12 06:27:25;;;;;;;;;;;;;;;6.90;100.00;101446.03;5231019;28;19920;-58
2022/03/12 06:29:56;;;;;;;;;;;;;;;6.93;100.00;101445.56;5231042;28;19916;-59
2022/03/12 06:32:28;;;;;;;;;;;;;;;6.96;100.00;101455.06;5230755;28;19912;-59
2022/03/12 06:34:58;;;;;;;;;;;;;;;7.01;100.00;101460.59;5230593;28;19912;-59
2022/03/12 06:37:28;;;;;;;;;;;;;;;7.06;100.00;101469.66;5230623;28;19913;-59
2022/03/12 06:40:01;;;;;;;;;;;;;;;7.14;100.00;101459.69;5248315;28;20308;-59
2022/03/12 06:42:34;;;;;;;;;;;;;;;7.17;100.00;101462.78;5230738;28;20520;-59
2022/03/12 06:45:05;;;;;;;;;;;;;;;7.19;100.00;101471.44;5230125;28;19913;-59
2022/03/12 06:47:38;;;;;;;;;;;;;;;7.25;100.00;101480.47;5229779;28;20437;-59
2022/03/12 06:50:10;;;;;;;;;;;;;;;7.25;100.00;101478.59;5231160;28;20372;-59
2022/03/12 06:52:43;;;;;;;;;;;;;;;7.32;100.00;101479.38;5230831;28;20364;-58
2022/03/12 06:55:14;;;;;;;;;;;;;;;7.36;100.00;101487.81;5229952;28;19962;-60
2022/03/12 06:57:47;;;;;;;;;;;;;;;7.44;100.00;101493.75;5230171;28;19959;-63
2022/03/12 07:00:20;;;;;;;;;;;;;;;7.51;100.00;101488.28;5230237;28;19974;-59
2022/03/12 07:02:51;;;;;;;;;;;;;;;7.58;100.00;101493.63;5230061;28;19959;-59
2022/03/12 07:05:21;;;;;;;;;;;;;;;7.62;100.00;101498.34;5229751;28;19952;-59
2022/03/12 07:07:52;;;;;;;;;;;;;;;7.68;100.00;101499.31;5230153;28;19916;-59
2022/03/12 07:10:22;;;;;;;;;;;;;;;7.73;100.00;101500.31;5230181;28;19916;-59
2022/03/12 07:12:53;;;;;;;;;;;;;;;7.79;100.00;101496.75;5230125;28;19919;-59
2022/03/12 07:15:23;;;;;;;;;;;;;;;7.86;100.00;101496.66;5229772;28;20268;-60
2022/03/12 07:17:55;;;;;;;;;;;;;;;7.94;100.00;101498.25;5229997;28;19932;-59
2022/03/12 07:20:25;;;;;;;;;;;;;;;8.01;100.00;101504.38;5229790;28;19976;-59
2022/03/12 07:22:56;;;;;;;;;;;;;;;8.05;100.00;101506.41;5230202;28;20007;-58
2022/03/12 07:25:27;;;;;;;;;;;;;;;8.11;100.00;101502.78;5229708;28;19913;-61
2022/03/12 07:27:58;;;;;;;;;;;;;;;8.18;100.00;101510.78;5229571;28;20301;-59
2022/03/12 07:30:30;;;;;;;;;;;;;;;8.24;100.00;101514.47;5211775;28;19939;-59
2022/03/12 07:33:01;;;;;;;;;;;;;;;8.30;100.00;101516.25;5208974;28;19966;-59
2022/03/12 07:35:31;;;;;;;;;;;;;;;8.35;100.00;101516.44;5208916;28;19913;-59
2022/03/12 07:38:02;;;;;;;;;;;;;;;8.40;100.00;101519.25;5208730;28;20325;-59
2022/03/12 07:40:33;;;;;;;;;;;;;;;8.47;100.00;101525.41;5208907;28;20296;-59
2022/03/12 07:43:03;;;;;;;;;;;;;;;8.52;100.00;101522.84;5213240;28;19917;-60
2022/03/12 07:45:34;;;;;;;;;;;;;;;8.59;100.00;101522.78;5216222;28;20026;-60
2022/03/12 07:48:05;;;;;;;;;;;;;;;8.65;100.00;101533.47;5224863;28;19923;-60
2022/03/12 07:50:35;;;;;;;;;;;;;;;8.74;100.00;101537.47;5225307;28;20102;-56
2022/03/12 07:53:06;;;;;;;;;;;;;;;8.83;100.00;101547.94;5225094;28;19924;-56
2022/03/12 07:55:36;;;;;;;;;;;;;;;8.91;100.00;101547.63;5225943;28;20373;-60
2022/03/12 07:58:09;;;;;;;;;;;;;;;8.97;100.00;101557.47;5226221;28;20282;-59
2022/03/12 08:00:40;;;;;;;;;;;;;;;9.04;100.00;101560.91;5224533;28;20396;-57
2022/03/12 08:03:10;;;;;;;;;;;;;;;9.12;100.00;101563.28;5224427;28;19917;-56
2022/03/12 08:05:41;;;;;;;;;;;;;;;9.18;100.00;101559.69;5224156;28;20335;-56
2022/03/12 08:08:12;;;;;;;;;;;;;;;9.26;100.00;101556.63;5224295;28;19917;-57
2022/03/12 08:13:31;;;;;;;;;;;;;;;9.44;100.00;101570.06;5225844;28;20126;-56
2022/03/12 08:16:01;;;;;;;;;;;;;;;9.51;100.00;101579.91;5230206;28;19916;-58
2022/03/12 08:18:32;;;;;;;;;;;;;;;9.59;100.00;101585.78;5248987;28;19958;-58
2022/03/12 08:21:02;;;;;;;;;;;;;;;9.68;100.00;101583.56;5249106;28;19912;-57
2022/03/12 08:23:34;;;;;;;;;;;;;;;9.73;100.00;101606.09;5248594;28;19912;-57
2022/03/12 08:26:04;;;;;;;;;;;;;;;9.79;100.00;101604.38;5248838;28;19919;-59
2022/03/12 08:28:34;;;;;;;;;;;;;;;9.82;100.00;101603.88;5248890;28;19916;-59
2022/03/12 08:31:05;;;;;;;;;;;;;;;9.82;100.00;101603.88;5248828;28;20024;-59
2022/03/12 08:33:37;;;;;;;;;;;;;;;9.88;100.00;101602.94;5248578;28;20014;-58
2022/03/12 08:36:07;;;;;;;;;;;;;;;10.07;100.00;101609.91;5248944;28;20291;-57
2022/03/12 08:38:38;;;;;;;;;;;;;;;10.27;100.00;101606.03;5266209;28;19912;-58
2022/03/12 08:41:11;;;;;;;;;;;;;;;10.40;100.00;101617.41;5247622;28;19919;-58
2022/03/12 08:43:42;;;;;;;;;;;;;;;10.57;100.00;101619.41;5248311;28;19927;-58
2022/03/12 08:46:12;;;;;;;;;;;;;;;10.70;100.00;101617.25;5248714;28;19938;-59
2022/03/12 08:48:42;;;;;;;;;;;;;;;10.80;100.00;101624.75;5248674;28;20380;-58
2022/03/12 08:51:13;;;;;;;;;;;;;;;10.90;100.00;101621.44;5266613;28;19913;-57
2022/03/12 08:53:43;;;;;;;;;;;;;;;10.99;100.00;101625.38;5248382;28;19915;-57
2022/03/12 08:56:13;;;;;;;;;;;;;;;11.06;100.00;101623.38;5248759;28;20287;-57
2022/03/12 08:58:44;;;;;;;;;;;;;;;11.06;100.00;101616.09;5248604;28;19912;-58
2022/03/12 09:01:15;;;;;;;;;;;;;;;11.07;100.00;101620.44;5248626;28;19919;-58
2022/03/12 09:03:46;;;;;;;;;;;;;;;11.15;100.00;101619.25;5248097;28;19978;-58
2022/03/12 09:06:17;;;;;;;;;;;;;;;11.18;100.00;101624.16;5248578;28;19964;-59
2022/03/12 09:08:47;;;;;;;;;;;;;;;11.17;100.00;101619.81;5248563;28;19987;-58
2022/03/12 09:11:17;;;;;;;;;;;;;;;11.13;100.00;101633.00;5251147;28;20314;-59
2022/03/12 09:13:48;;;;;;;;;;;;;;;11.08;100.00;101626.66;5253009;28;19965;-58
2022/03/12 09:16:18;;;;;;;;;;;;;;;11.04;100.00;101625.50;5253107;28;19919;-58
2022/03/12 09:18:50;;;;;;;;;;;;;;;11.11;100.00;101624.31;5253348;28;19919;-60
2022/03/12 09:21:21;;;;;;;;;;;;;;;11.11;100.00;101627.00;5253248;28;19938;-60
2022/03/12 09:23:52;;;;;;;;;;;;;;;11.06;100.00;101628.78;5252693;28;19912;-58
2022/03/12 09:26:23;;;;;;;;;;;;;;;11.08;100.00;101632.88;5245287;28;19920;-56
2022/03/12 09:28:54;;;;;;;;;;;;;;;11.10;100.00;101627.25;5236306;28;19913;-59
2022/03/12 09:31:24;;;;;;;;;;;;;;;11.24;100.00;101639.44;5232091;28;19913;-58
2022/03/12 09:33:54;;;;;;;;;;;;;;;11.42;100.00;101630.28;5231797;28;20341;-59
2022/03/12 09:36:25;;;;;;;;;;;;;;;11.63;100.00;101624.16;5231506;28;19935;-57
2022/03/12 09:38:55;;;;;;;;;;;;;;;11.84;100.00;101636.19;5231898;28;20015;-58
2022/03/12 09:41:25;;;;;;;;;;;;;;;11.99;100.00;101636.44;5231744;28;20379;-57
2022/03/12 09:43:56;;;;;;;;;;;;;;;12.02;100.00;101633.25;5230685;28;19924;-61
2022/03/12 09:46:26;;;;;;;;;;;;;;;12.17;100.00;101638.88;5227448;28;20288;-62
2022/03/12 09:48:57;;;;;;;;;;;;;;;12.32;100.00;101621.22;5218851;28;19919;-59
2022/03/12 09:51:29;;;;;;;;;;;;;;;12.46;100.00;101630.63;5247131;28;20430;-59
2022/03/12 09:53:59;;;;;;;;;;;;;;;12.62;100.00;101623.53;5231444;28;20288;-60
2022/03/12 09:56:30;;;;;;;;;;;;;;;12.62;100.00;101628.97;5243296;28;19919;-60
2022/03/12 09:59:00;;;;;;;;;;;;;;;12.65;100.00;101620.34;5227507;28;19913;-59
2022/03/12 10:01:31;;;;;;;;;;;;;;;12.71;100.00;101612.00;5226895;28;20291;-61
2022/03/12 10:04:01;;;;;;;;;;;;;;;12.85;100.00;101613.28;5228080;28;19916;-62
2022/03/12 10:06:32;;;;;;;;;;;;;;;12.93;100.00;101617.44;5228546;28;20389;-60
2022/03/12 10:09:04;;;;;;;;;;;;;;;12.93;100.00;101619.34;5227306;28;19913;-61
2022/03/12 10:11:35;;;;;;;;;;;;;;;12.93;100.00;101620.16;5227219;28;19913;-60
2022/03/12 10:14:05;;;;;;;;;;;;;;;13.01;100.00;101614.25;5226495;28;19912;-60
2022/03/12 10:16:35;;;;;;;;;;;;;;;13.14;100.00;101615.78;5226094;28;19921;-60
2022/03/12 10:19:06;;;;;;;;;;;;;;;13.10;100.00;101615.47;5227935;28;19912;-60
2022/03/12 10:21:42;;;;;;;;;;;;;;;12.95;100.00;101614.47;5225550;28;19935;-59
2022/03/12 10:24:13;;;;;;;;;;;;;;;13.00;100.00;101611.81;5225857;28;19912;-59
2022/03/12 10:26:43;;;;;;;;;;;;;;;13.03;100.00;101612.13;5226040;28;19924;-60
2022/03/12 10:29:14;;;;;;;;;;;;;;;13.15;100.00;101612.00;5226259;28;20260;-59
2022/03/12 10:31:44;;;;;;;;;;;;;;;13.11;100.00;101608.16;5226487;28;19913;-59
2022/03/12 10:34:30;;;;;;;;;;;;;;;13.13;100.00;101603.28;5226404;28;19913;-60
2022/03/12 10:37:00;;;;;;;;;;;;;;;13.27;100.00;101599.16;5226285;28;19948;-60
2022/03/12 10:39:40;;;;;;;;;;;;;;;13.32;100.00;101595.63;5226179;28;19997;-60
2022/03/12 10:42:15;;;;;;;;;;;;;;;13.49;100.00;101597.19;5241568;22;19929;-82
2022/03/12 10:44:45;;;;;;;;;;;;;;;13.69;100.00;101601.97;5251270;28;19932;-80
2022/03/12 10:47:19;;;;;;;;;;;;;;;13.78;100.00;101602.31;5235184;28;19916;-81
2022/03/12 10:50:00;;;;;;;;;;;;;;;13.88;100.00;101599.66;5233852;28;19947;-83
2022/03/12 10:52:32;;;;;;;;;;;;;;;14.07;100.00;101586.50;5215307;28;19913;-80
2022/03/12 10:55:14;;;;;;;;;;;;;;;14.18;100.00;101601.78;5217114;28;20393;-80
2022/03/12 10:57:58;;;;;;;;;;;;;;;14.18;100.00;101599.88;5234623;28;20000;-80
2022/03/12 11:00:30;;;;;;;;;;;;;;;14.13;100.00;101612.63;5232598;28;19912;-82
2022/03/12 11:03:01;;;;;;;;;;;;;;;14.14;100.00;101609.66;5234758;28;19913;-80
2022/03/12 11:05:34;;;;;;;;;;;;;;;14.19;100.00;101606.13;5233116;28;19913;-81
2022/03/12 11:08:10;;;;;;;;;;;;;;;14.27;100.00;101615.69;5233184;28;19917;-82
2022/03/12 11:10:43;;;;;;;;;;;;;;;14.24;100.00;101617.03;5233927;28;19912;-81
2022/03/12 11:13:29;;;;;;;;;;;;;;;14.42;100.00;101613.13;5214795;28;19913;-83
2022/03/12 11:16:05;;;;;;;;;;;;;;;14.56;100.00;101605.28;5213928;28;19913;-81
2022/03/12 11:18:36;;;;;;;;;;;;;;;14.80;100.00;101611.91;5234136;28;19912;-81
2022/03/12 11:21:06;;;;;;;;;;;;;;;14.81;100.00;101603.50;5216862;28;20468;-83
2022/03/12 11:23:37;;;;;;;;;;;;;;;14.83;100.00;101600.50;5231895;28;20011;-82
2022/03/12 11:26:07;;;;;;;;;;;;;;;14.90;100.00;101603.00;5232708;28;19917;-83
2022/03/12 11:28:38;;;;;;;;;;;;;;;15.13;100.00;101597.06;5232945;28;19913;-82
2022/03/12 11:31:10;;;;;;;;;;;;;;;15.45;100.00;101597.69;5215295;28;19929;-81
2022/03/12 11:33:41;;;;;;;;;;;;;;;15.53;100.00;101588.16;5244354;28;19939;-82
2022/03/12 11:36:11;;;;;;;;;;;;;;;15.53;100.00;101605.31;5247159;28;19912;-82
2022/03/12 11:38:49;;;;;;;;;;;;;;;15.42;97.98;101597.41;5266512;28;19919;-82
2022/03/12 11:41:25;;;;;;;;;;;;;;;15.34;97.81;101601.47;5262972;28;19919;-81
2022/03/12 11:43:55;;;;;;;;;;;;;;;15.34;100.00;101606.91;5249887;28;20015;-82
2022/03/12 11:46:25;;;;;;;;;;;;;;;15.34;100.00;101608.81;5230803;28;20019;-82
2022/03/12 11:48:56;;;;;;;;;;;;;;;15.39;99.77;101604.19;5232066;28;19917;-82
2022/03/12 11:51:28;;;;;;;;;;;;;;;15.57;100.00;101602.09;5250651;28;20456;-82
2022/03/12 11:53:59;;;;;;;;;;;;;;;15.72;98.90;101608.34;5249297;28;19912;-82
2022/03/12 11:56:32;;;;;;;;;;;;;;;15.85;97.87;101607.00;5232467;28;19920;-82
2022/03/12 11:59:02;;;;;;;;;;;;;;;16.05;96.05;101603.44;5232173;28;19912;-82
2022/03/12 12:01:35;;;;;;;;;;;;;;;16.11;92.50;101600.44;5250380;28;19913;-83
2022/03/12 12:04:06;;;;;;;;;;;;;;;16.01;91.68;101595.00;5250427;28;19912;-83
2022/03/12 12:06:38;;;;;;;;;;;;;;;15.92;94.32;101588.44;5232319;28;19923;-82
2022/03/12 12:09:10;;;;;;;;;;;;;;;16.05;93.35;101590.63;5232155;28;19917;-81
2022/03/12 12:11:40;;;;;;;;;;;;;;;16.01;93.05;101589.53;5250312;28;19912;-81
2022/03/12 12:14:10;;;;;;;;;;;;;;;15.74;91.91;101583.56;5250293;28;20400;-81
2022/03/12 12:16:43;;;;;;;;;;;;;;;15.77;95.04;101586.56;5250876;28;19912;-81
2022/03/12 12:19:13;;;;;;;;;;;;;;;15.83;94.34;101577.31;5232868;28;19919;-82
2022/03/12 12:21:44;;;;;;;;;;;;;;;16.00;94.86;101582.47;5233104;28;20011;-82
2022/03/12 12:24:44;;;;;;;;;;;;;;;16.01;92.78;101569.66;5251734;28;19913;-82
2022/03/12 12:27:15;;;;;;;;;;;;;;;16.35;93.12;101583.47;5229834;28;19963;-82
2022/03/12 12:29:46;;;;;;;;;;;;;;;16.34;92.16;101588.13;5251784;28;20396;-81
2022/03/12 12:32:21;;;;;;;;;;;;;;;16.35;91.82;101578.03;5234559;28;19980;-80
2022/03/12 12:35:04;;;;;;;;;;;;;;;16.45;90.44;101575.28;5242028;28;19912;-81
2022/03/12 12:37:54;;;;;;;;;;;;;;;16.56;91.04;101571.41;5260389;28;19943;-82
2022/03/12 12:40:27;;;;;;;;;;;;;;;16.44;88.41;101570.94;5261323;28;19935;-81
2022/03/12 12:43:02;;;;;;;;;;;;;;;16.40;90.88;101564.38;5243070;28;19916;-82
2022/03/12 12:45:33;;;;;;;;;;;;;;;16.60;91.09;101568.94;5244775;28;19942;-81
2022/03/12 12:48:14;;;;;;;;;;;;;;;16.77;89.40;101570.25;5262889;28;19970;-80
2022/03/12 12:50:59;;;;;;;;;;;;;;;16.87;89.53;101564.75;5255820;28;19912;-81
2022/03/12 12:53:30;;;;;;;;;;;;;;;16.94;90.72;101558.19;5234631;28;19913;-80
2022/03/12 12:56:21;;;;;;;;;;;;;;;16.90;90.22;101562.56;5253398;28;19984;-80
2022/03/12 12:58:51;;;;;;;;;;;;;;;16.91;89.56;101543.19;5235999;28;19912;-81
2022/03/12 13:01:22;;;;;;;;;;;;;;;16.90;89.25;101546.19;5253058;28;19912;-81